Time;durP1;ratioP1;P1;durP2;ratioP2;P2;SDS_P1;SDS_P2;PMS_P1;PMS_P2;Temp;Humidity;BMP_temperature;BMP_pressure;BME280_temperature;BME280_humidity;BME280_pressure;Samples;Min_cycle;Max_cycle;Signal;HPM_P1;HPM_P2
2021/06/29 00:01:03;;;;;;;15.90;12.37;;;;;;;20.38;77.69;100648.09;1821434;78;21370;-76
2021/06/29 00:03:30;;;;;;;20.08;12.88;;;;;;;20.37;77.67;100647.76;1821475;78;20954;-77
2021/06/29 00:05:57;;;;;;;15.03;10.88;;;;;;;20.36;77.63;100650.06;1821533;78;21142;-76
2021/06/29 00:08:25;;;;;;;16.48;12.15;;;;;;;20.34;77.66;100649.38;1821523;78;20876;-78
2021/06/29 00:10:52;;;;;;;17.75;12.25;;;;;;;20.32;77.79;100643.38;1821474;78;21404;-78
2021/06/29 00:13:20;;;;;;;14.80;11.57;;;;;;;20.30;77.84;100647.55;1821332;78;21001;-77
2021/06/29 00:15:47;;;;;;;17.50;11.60;;;;;;;20.28;77.69;100642.36;1821386;78;20860;-78
2021/06/29 00:18:14;;;;;;;14.18;11.12;;;;;;;20.26;77.76;100640.34;1821460;78;21118;-78
2021/06/29 00:20:41;;;;;;;19.12;12.68;;;;;;;20.23;77.78;100636.67;1821264;78;20919;-79
2021/06/29 00:23:07;;;;;;;18.27;10.50;;;;;;;20.21;77.84;100636.45;1821428;78;20923;-78
2021/06/29 00:25:34;;;;;;;16.80;11.88;;;;;;;20.16;77.75;100636.09;1821770;78;20856;-78
2021/06/29 00:28:01;;;;;;;16.75;12.55;;;;;;;20.11;77.86;100633.06;1821437;78;20935;-78
2021/06/29 00:30:28;;;;;;;19.73;12.80;;;;;;;20.06;77.92;100638.85;1821676;78;21787;-79
2021/06/29 00:32:56;;;;;;;15.00;11.97;;;;;;;20.02;78.08;100632.98;1821472;78;20860;-77
2021/06/29 00:35:22;;;;;;;20.88;11.50;;;;;;;20.00;78.27;100632.80;1821760;78;21418;-78
2021/06/29 00:37:49;;;;;;;16.70;11.48;;;;;;;19.97;78.20;100633.95;1821370;78;20978;-77
2021/06/29 00:40:16;;;;;;;20.35;12.13;;;;;;;19.95;78.22;100629.77;1823222;78;21507;-78
2021/06/29 00:42:43;;;;;;;18.40;11.60;;;;;;;19.93;78.15;100624.59;1824870;78;21121;-76
2021/06/29 00:45:11;;;;;;;15.13;11.55;;;;;;;19.92;78.10;100622.08;1825047;78;20962;-77
2021/06/29 00:47:38;;;;;;;19.82;12.13;;;;;;;19.90;78.29;100619.59;1824826;78;21302;-77
2021/06/29 00:50:07;;;;;;;21.87;12.63;;;;;;;19.89;78.31;100617.90;1825096;78;20931;-78
2021/06/29 00:52:34;;;;;;;19.85;10.80;;;;;;;19.88;78.17;100610.91;1824994;78;20918;-79
2021/06/29 00:55:01;;;;;;;22.30;11.68;;;;;;;19.86;78.18;100611.06;1824852;78;21137;-79
2021/06/29 00:57:28;;;;;;;18.98;10.28;;;;;;;19.85;78.25;100613.39;1825018;78;20833;-78
2021/06/29 00:59:55;;;;;;;16.17;11.43;;;;;;;19.83;78.29;100605.19;1826042;78;20927;-78
2021/06/29 01:02:22;;;;;;;12.28;9.58;;;;;;;19.80;78.43;100611.66;1824951;78;20915;-79
2021/06/29 01:04:49;;;;;;;12.85;10.08;;;;;;;19.80;78.49;100609.50;1825211;78;21025;-79
2021/06/29 01:07:16;;;;;;;12.47;10.15;;;;;;;19.75;78.34;100615.78;1825099;78;21353;-78
2021/06/29 01:09:44;;;;;;;14.53;10.15;;;;;;;19.68;78.64;100608.37;1825094;78;20934;-77
2021/06/29 01:12:11;;;;;;;13.40;9.95;;;;;;;19.68;78.55;100616.84;1824882;78;20954;-78
2021/06/29 01:14:38;;;;;;;12.13;10.48;;;;;;;19.68;78.41;100618.18;1825127;78;20852;-78
2021/06/29 01:17:08;;;;;;;11.65;10.45;;;;;;;19.69;78.33;100615.88;1824779;78;20895;-78
2021/06/29 01:19:43;;;;;;;18.67;10.45;;;;;;;19.70;78.18;100620.23;1825103;78;21114;-79
2021/06/29 01:22:08;;;;;;;16.45;11.53;;;;;;;19.70;78.09;100618.91;1824698;78;20864;-77
2021/06/29 01:24:35;;;;;;;13.68;11.22;;;;;;;19.71;78.19;100620.56;1824844;78;20848;-77
2021/06/29 01:32:16;;;;;;;12.45;10.58;;;;;;;19.62;78.72;100617.45;1824985;78;21756;-77
2021/06/29 01:34:43;;;;;;;19.80;11.85;;;;;;;19.59;78.61;100619.92;1824865;78;21372;-78
2021/06/29 01:37:11;;;;;;;17.32;12.28;;;;;;;19.58;78.49;100622.72;1824815;78;20966;-77
2021/06/29 01:39:40;;;;;;;11.93;10.72;;;;;;;19.56;78.41;100628.19;1824612;78;21485;-79
2021/06/29 01:42:08;;;;;;;19.82;11.53;;;;;;;19.56;78.31;100628.69;1824381;78;20906;-78
2021/06/29 01:44:35;;;;;;;16.02;10.58;;;;;;;19.55;78.11;100627.02;1824881;78;21113;-78
2021/06/29 01:47:05;;;;;;;16.17;10.32;;;;;;;19.56;78.11;100636.66;1824820;78;21414;-78
2021/06/29 01:49:32;;;;;;;12.30;10.65;;;;;;;19.54;78.35;100629.33;1824905;78;20880;-78
2021/06/29 01:51:59;;;;;;;18.05;11.60;;;;;;;19.51;78.43;100632.30;1824920;78;20962;-77
2021/06/29 01:54:25;;;;;;;18.48;11.18;;;;;;;19.50;78.51;100626.61;1824895;78;20915;-78
2021/06/29 01:56:52;;;;;;;16.62;11.35;;;;;;;19.48;78.32;100625.95;1824884;78;21796;-78
2021/06/29 01:59:21;;;;;;;16.10;11.57;;;;;;;19.47;78.25;100625.09;1824784;78;21566;-77
2021/06/29 02:01:48;;;;;;;14.28;10.35;;;;;;;19.47;78.40;100637.06;1825046;78;20867;-77
2021/06/29 02:04:15;;;;;;;17.23;11.73;;;;;;;19.46;78.56;100637.56;1825045;78;20923;-78
2021/06/29 02:06:42;;;;;;;16.42;10.93;;;;;;;19.47;78.71;100635.73;1825017;78;20970;-77
2021/06/29 02:09:10;;;;;;;18.48;11.63;;;;;;;19.43;78.64;100636.55;1825046;78;21032;-77
2021/06/29 02:11:38;;;;;;;18.87;12.68;;;;;;;19.41;78.88;100637.69;1824947;78;20888;-78
2021/06/29 02:14:05;;;;;;;22.05;11.95;;;;;;;19.41;79.06;100641.17;1825036;78;20872;-78
2021/06/29 02:16:33;;;;;;;16.50;11.03;;;;;;;19.41;79.23;100639.02;1824959;78;20942;-78
2021/06/29 02:18:59;;;;;;;21.93;13.68;;;;;;;19.42;79.31;100640.17;1825411;78;21001;-77
2021/06/29 02:21:26;;;;;;;15.08;11.83;;;;;;;19.43;79.44;100644.53;1825000;78;21132;-77
2021/06/29 02:23:53;;;;;;;22.48;13.48;;;;;;;19.43;79.35;100645.86;1824795;78;20884;-75
2021/06/29 02:26:21;;;;;;;24.55;13.62;;;;;;;19.41;79.58;100641.17;1824989;78;21431;-78
2021/06/29 02:28:48;;;;;;;17.87;13.13;;;;;;;19.43;79.63;100641.86;1825400;78;20927;-77
2021/06/29 02:31:14;;;;;;;20.72;11.85;;;;;;;19.43;79.79;100643.20;1824911;78;21369;-76
2021/06/29 02:33:41;;;;;;;23.20;12.80;;;;;;;19.43;79.92;100647.19;1825181;78;21106;-77
2021/06/29 02:36:08;;;;;;;26.37;12.75;;;;;;;19.48;79.93;100643.25;1824995;78;21329;-77
2021/06/29 02:38:36;;;;;;;15.43;12.35;;;;;;;19.52;79.39;100637.48;1825234;78;21448;-78
2021/06/29 02:41:04;;;;;;;21.82;11.08;;;;;;;19.60;78.84;100644.69;1822765;78;20919;-77
2021/06/29 02:43:31;;;;;;;18.20;11.85;;;;;;;19.68;78.45;100650.11;1821524;78;20939;-79
2021/06/29 02:45:58;;;;;;;40.63;20.77;;;;;;;19.78;78.11;100652.22;1821544;78;21138;-76
2021/06/29 02:48:25;;;;;;;18.57;10.00;;;;;;;19.85;78.33;100652.45;1821329;78;20875;-78
2021/06/29 02:50:52;;;;;;;14.93;11.50;;;;;;;19.90;78.35;100651.52;1821471;78;20914;-78
2021/06/29 02:53:19;;;;;;;21.93;12.18;;;;;;;19.93;78.37;100649.05;1821534;78;20876;-78
2021/06/29 02:55:46;;;;;;;20.32;11.50;;;;;;;19.96;78.48;100646.91;1821467;78;20927;-78
2021/06/29 02:58:13;;;;;;;17.40;11.20;;;;;;;20.01;78.32;100643.31;1821625;78;21128;-78
2021/06/29 03:00:40;;;;;;;25.82;12.00;;;;;;;20.02;78.33;100649.46;1822213;78;20998;-78
2021/06/29 03:03:06;;;;;;;20.85;12.13;;;;;;;20.06;78.55;100645.51;1822095;78;20848;-79
2021/06/29 03:05:33;;;;;;;17.05;11.55;;;;;;;20.12;78.44;100644.05;1821840;78;21413;-78
2021/06/29 03:08:01;;;;;;;21.80;12.30;;;;;;;20.20;78.50;100644.95;1821617;78;20975;-80
2021/06/29 03:10:30;;;;;;;20.27;13.58;;;;;;;20.27;78.28;100657.98;1821417;78;21135;-78
2021/06/29 03:12:56;;;;;;;20.65;13.62;;;;;;;20.33;78.04;100651.22;1821365;78;20840;-79
2021/06/29 03:15:23;;;;;;;26.85;12.58;;;;;;;20.40;78.03;100657.59;1821419;78;20978;-77
2021/06/29 03:17:51;;;;;;;23.95;12.75;;;;;;;20.48;78.04;100660.32;1821665;78;21420;-79
2021/06/29 03:20:18;;;;;;;21.48;12.50;;;;;;;20.54;77.68;100648.69;1821571;78;20899;-78
2021/06/29 03:22:44;;;;;;;23.50;12.30;;;;;;;20.60;77.48;100656.10;1821425;78;21138;-76
2021/06/29 03:25:12;;;;;;;22.15;12.78;;;;;;;20.62;77.44;100660.28;1821547;78;21472;-76
2021/06/29 03:27:38;;;;;;;20.15;12.93;;;;;;;20.64;77.51;100654.30;1821677;78;20879;-76
2021/06/29 03:30:07;;;;;;;24.63;13.80;;;;;;;20.68;77.57;100653.00;1821521;78;20934;-76
2021/06/29 03:32:34;;;;;;;22.25;13.18;;;;;;;20.73;77.75;100663.18;1821484;78;20899;-77
2021/06/29 03:35:07;;;;;;;25.35;15.83;;;;;;;20.77;77.78;100667.21;1821853;78;21091;-76
2021/06/29 03:37:30;;;;;;;26.20;12.15;;;;;;;20.82;77.82;100662.73;1820417;78;20920;-76
2021/06/29 03:39:57;;;;;;;16.45;12.03;;;;;;;20.89;77.84;100661.94;1821665;78;20860;-77
2021/06/29 03:42:24;;;;;;;28.55;13.88;;;;;;;20.97;77.76;100658.49;1824983;77;20915;-76
2021/06/29 03:44:51;;;;;;;25.08;14.13;;;;;;;21.08;77.54;100667.55;1825232;78;20923;-77
2021/06/29 03:47:18;;;;;;;29.82;14.87;;;;;;;21.19;77.35;100665.09;1825032;78;21104;-77
2021/06/29 03:49:48;;;;;;;28.02;15.83;;;;;;;21.30;77.04;100667.98;1825307;78;20907;-77
2021/06/29 03:52:15;;;;;;;26.80;14.75;;;;;;;21.39;76.29;100668.34;1824027;78;20844;-77
2021/06/29 03:54:42;;;;;;;29.82;15.55;;;;;;;21.47;75.73;100667.05;1825099;77;20887;-78
2021/06/29 03:57:09;;;;;;;32.58;17.12;;;;;;;21.57;75.52;100669.59;1825028;78;21350;-77
2021/06/29 03:59:35;;;;;;;29.82;15.70;;;;;;;21.69;75.58;100665.61;1825262;77;21401;-78
2021/06/29 04:02:07;;;;;;;28.83;14.90;;;;;;;21.79;75.29;100658.80;1824921;77;21412;-76
2021/06/29 04:04:34;;;;;;;29.92;14.07;;;;;;;21.90;74.77;100657.66;1825346;77;20931;-75
2021/06/29 04:07:07;;;;;;;25.60;12.80;;;;;;;22.03;74.43;100662.49;1824904;77;21068;-76
2021/06/29 04:09:32;;;;;;;20.02;12.37;;;;;;;22.16;74.18;100657.48;1825255;78;20971;-76
2021/06/29 04:11:59;;;;;;;34.45;11.25;;;;;;;22.39;73.91;100654.17;1824839;78;21116;-76
2021/06/29 04:14:26;;;;;;;25.77;12.30;;;;;;;22.77;73.11;100652.62;1825199;77;20970;-76
2021/06/29 04:16:53;;;;;;;23.95;12.98;;;;;;;23.28;71.71;100646.45;1824865;78;20966;-76
2021/06/29 04:19:20;;;;;;;28.80;13.05;;;;;;;23.83;69.94;100649.17;1825142;77;20994;-76
2021/06/29 04:21:47;;;;;;;22.25;12.23;;;;;;;24.38;67.83;100646.72;1824993;78;20892;-76
2021/06/29 04:24:14;;;;;;;16.30;10.98;;;;;;;24.95;65.38;100643.98;1825398;78;21768;-76
2021/06/29 04:26:41;;;;;;;17.62;11.60;;;;;;;25.51;63.82;100651.52;1824900;77;20895;-76
2021/06/29 04:29:07;;;;;;;20.72;13.32;;;;;;;26.03;62.05;100655.30;1824833;77;20974;-76
2021/06/29 04:31:34;;;;;;;30.65;14.53;;;;;;;26.53;60.48;100650.43;1825156;77;20892;-75
2021/06/29 04:34:01;;;;;;;23.77;13.68;;;;;;;26.97;58.52;100649.25;1825219;77;21435;-77
2021/06/29 04:36:29;;;;;;;32.35;15.93;;;;;;;27.37;57.44;100650.81;1825211;77;21090;-76
2021/06/29 04:38:55;;;;;;;36.05;17.02;;;;;;;27.70;56.53;100651.76;1824917;77;21460;-77
2021/06/29 04:41:22;;;;;;;28.47;15.18;;;;;;;28.04;55.05;100654.01;1823360;77;21002;-75
2021/06/29 04:43:49;;;;;;;30.37;16.23;;;;;;;28.35;54.07;100649.87;1821284;78;21026;-77
2021/06/29 04:46:16;;;;;;;30.40;14.87;;;;;;;28.65;53.49;100647.56;1821802;78;20903;-75
2021/06/29 04:48:43;;;;;;;23.25;14.13;;;;;;;28.92;52.56;100642.92;1821506;78;21109;-76
2021/06/29 04:51:10;;;;;;;19.42;13.08;;;;;;;29.19;51.63;100649.61;1821770;78;21431;-76
2021/06/29 04:53:37;;;;;;;25.43;12.82;;;;;;;29.47;51.24;100652.50;1821422;78;20880;-77
2021/06/29 04:56:16;;;;;;;25.85;13.62;;;;;;;29.74;50.29;100647.80;1821653;78;20955;-76
2021/06/29 04:58:32;;;;;;;24.52;12.47;;;;;;;30.04;49.42;100648.55;1818905;78;21092;-75
2021/06/29 05:00:59;;;;;;;30.75;23.70;;;;;;;30.30;48.83;100647.50;1821796;78;21085;-76
2021/06/29 05:03:28;;;;;;;26.05;14.15;;;;;;;30.53;48.48;100656.36;1818095;78;20896;-76
2021/06/29 05:05:55;;;;;;;19.92;12.40;;;;;;;30.76;48.04;100651.11;1814817;78;20979;-77
2021/06/29 05:08:22;;;;;;;18.17;11.35;;;;;;;30.98;47.56;100653.41;1814686;78;21488;-75
2021/06/29 05:10:49;;;;;;;26.50;11.85;;;;;;;31.16;46.63;100661.52;1815193;79;20951;-75
2021/06/29 05:13:16;;;;;;;22.70;13.58;;;;;;;31.37;46.60;100657.52;1814888;78;21136;-76
2021/06/29 05:15:43;;;;;;;22.27;12.33;;;;;;;31.56;46.01;100652.89;1815206;79;20979;-75
2021/06/29 05:18:10;;;;;;;34.23;12.93;;;;;;;31.75;45.42;100663.67;1814923;79;20983;-76
2021/06/29 05:20:37;;;;;;;20.40;12.28;;;;;;;31.96;45.04;100663.14;1815049;79;20907;-74
2021/06/29 05:23:03;;;;;;;19.65;12.18;;;;;;;32.19;44.26;100668.34;1814580;79;20927;-75
2021/06/29 05:25:31;;;;;;;25.60;14.93;;;;;;;32.39;43.70;100663.42;1814799;79;21061;-76
2021/06/29 05:27:58;;;;;;;26.52;17.52;;;;;;;32.57;42.95;100669.30;1814353;79;20868;-75
2021/06/29 05:30:25;;;;;;;28.57;15.32;;;;;;;32.69;42.64;100667.92;1814835;79;20813;-72
2021/06/29 05:32:52;;;;;;;28.23;19.85;;;;;;;32.74;42.51;100663.95;1814682;79;20983;-73
2021/06/29 05:35:19;;;;;;;26.33;18.32;;;;;;;32.80;41.22;100656.22;1814692;79;20900;-72
2021/06/29 05:37:45;;;;;;;31.17;18.50;;;;;;;32.84;41.26;100659.29;1814514;79;21179;-73
2021/06/29 05:40:13;;;;;;;23.40;16.77;;;;;;;32.75;41.70;100663.41;1814700;79;20904;-72
2021/06/29 05:42:40;;;;;;;27.80;18.25;;;;;;;32.67;42.12;100661.08;1814445;78;20998;-76
2021/06/29 05:45:07;;;;;;;23.42;15.60;;;;;;;32.58;42.37;100655.17;1814372;79;20912;-72
2021/06/29 05:47:35;;;;;;;23.38;15.83;;;;;;;32.48;43.02;100650.83;1814823;79;20869;-72
2021/06/29 05:50:05;;;;;;;27.50;13.85;;;;;;;32.40;43.14;100653.38;1814661;79;21111;-73
2021/06/29 05:55:36;;;;;;;19.02;12.37;;;;;;;32.60;43.23;100647.09;1798617;79;22450;-72
2021/06/29 05:58:07;;;;;;;16.10;12.85;;;;;;;32.66;42.52;100652.62;1758366;81;20900;-72
2021/06/29 06:00:33;;;;;;;13.03;8.63;;;;;;;32.75;42.41;100647.11;1758174;81;21102;-72
2021/06/29 06:03:00;;;;;;;12.80;7.15;;;;;;;32.73;40.72;100654.16;1758320;81;20908;-73
2021/06/29 06:05:27;;;;;;;18.62;8.83;;;;;;;32.56;40.42;100647.26;1758281;81;20884;-74
2021/06/29 06:07:54;;;;;;;12.40;7.67;;;;;;;32.34;41.33;100654.32;1758306;80;20904;-73
2021/06/29 06:10:31;;;;;;;13.72;8.50;;;;;;;31.99;42.45;100651.88;1758340;81;20916;-76
2021/06/29 06:12:58;;;;;;;20.10;8.90;;;;;;;31.64;43.63;100657.68;1757754;81;21201;-74
2021/06/29 06:15:25;;;;;;;13.68;8.25;;;;;;;31.27;43.56;100650.98;1758243;80;20963;-73
2021/06/29 06:17:51;;;;;;;8.53;6.53;;;;;;;31.01;44.00;100651.59;1758249;80;21409;-73
2021/06/29 06:20:18;;;;;;;14.23;7.40;;;;;;;30.82;45.19;100649.39;1758153;81;21003;-71
2021/06/29 06:22:46;;;;;;;10.55;8.18;;;;;;;30.68;45.11;100650.07;1724765;81;21105;-71
2021/06/29 06:25:13;;;;;;;11.45;6.85;;;;;;;30.56;45.99;100642.38;1724892;83;21844;-70
2021/06/29 06:27:40;;;;;;;6.50;5.80;;;;;;;30.45;46.15;100648.52;1724675;81;20962;-73
2021/06/29 06:30:08;;;;;;;8.83;6.00;;;;;;;30.30;45.67;100643.44;1724756;83;20962;-70
2021/06/29 06:32:35;;;;;;;8.35;5.55;;;;;;;30.46;46.53;100642.89;1724709;83;20900;-75
2021/06/29 06:35:03;;;;;;;5.75;4.47;;;;;;;30.58;45.31;100637.56;1724975;81;20975;-75
2021/06/29 06:37:31;;;;;;;8.90;4.42;;;;;;;30.63;43.48;100628.77;1724866;81;21137;-76
2021/06/29 06:39:58;;;;;;;6.92;4.42;;;;;;;30.74;43.52;100632.08;1725029;83;21398;-75
2021/06/29 06:42:25;;;;;;;7.05;5.12;;;;;;;30.85;42.97;100633.22;1724704;83;20911;-75
2021/06/29 06:44:52;;;;;;;10.82;6.40;;;;;;;31.05;43.26;100639.25;1725329;81;20990;-76
2021/06/29 06:47:19;;;;;;;12.05;6.15;;;;;;;31.30;42.94;100632.36;1724878;83;20982;-73
2021/06/29 06:49:46;;;;;;;7.22;4.92;;;;;;;31.62;43.92;100637.59;1725040;81;21111;-74
2021/06/29 06:52:15;;;;;;;13.60;5.17;;;;;;;31.85;42.91;100639.53;1724670;83;20951;-74
2021/06/29 06:54:44;;;;;;;7.37;4.97;;;;;;;32.15;40.55;100640.86;1717116;82;20841;-74
2021/06/29 06:57:11;;;;;;;8.28;5.15;;;;;;;32.55;40.63;100639.34;1709236;83;21011;-75
2021/06/29 06:59:38;;;;;;;10.95;5.85;;;;;;;32.70;39.88;100634.79;1745245;80;20928;-74
2021/06/29 07:02:05;;;;;;;8.73;4.55;;;;;;;32.71;39.75;100642.70;1745166;82;21134;-74
2021/06/29 07:04:36;;;;;;;5.62;4.30;;;;;;;32.55;40.40;100646.98;1743600;80;20897;-73
2021/06/29 07:07:04;;;;;;;9.13;5.05;;;;;;;32.16;41.43;100627.58;1744719;81;20896;-74
2021/06/29 07:09:31;;;;;;;14.50;7.60;;;;;;;31.87;42.12;100638.77;1744941;82;20975;-73
2021/06/29 07:11:59;;;;;;;10.65;8.25;;;;;;;31.45;44.18;100644.19;1744792;81;21359;-74
2021/06/29 07:14:26;;;;;;;10.70;8.63;;;;;;;30.95;45.48;100647.92;1744826;80;21042;-73
2021/06/29 07:16:53;;;;;;;8.40;7.50;;;;;;;30.43;47.25;100656.86;1744702;82;21362;-76
2021/06/29 07:19:20;;;;;;;9.75;5.72;;;;;;;29.93;48.28;100664.42;1744978;81;20956;-75
2021/06/29 07:21:46;;;;;;;6.55;5.20;;;;;;;29.42;48.35;100661.79;1744619;82;20885;-75
2021/06/29 07:24:14;;;;;;;5.10;4.65;;;;;;;28.94;48.64;100667.84;1744624;82;20889;-76
2021/06/29 07:26:41;;;;;;;6.45;5.37;;;;;;;28.48;49.32;100670.13;1744664;80;21429;-76
2021/06/29 07:29:09;;;;;;;5.70;5.20;;;;;;;28.08;50.02;100670.59;1744623;81;20885;-76
2021/06/29 07:31:36;;;;;;;11.57;6.35;;;;;;;27.66;50.82;100670.71;1744667;81;20881;-76
2021/06/29 07:34:03;;;;;;;6.78;6.10;;;;;;;27.34;51.85;100662.00;1744597;80;20968;-75
2021/06/29 07:36:31;;;;;;;8.05;6.22;;;;;;;27.03;53.07;100661.41;1744593;81;20936;-74
2021/06/29 07:38:58;;;;;;;8.80;5.58;;;;;;;26.78;53.98;100657.03;1745014;82;22006;-74
2021/06/29 07:41:25;;;;;;;8.53;6.65;;;;;;;26.57;54.26;100647.18;1744984;82;20838;-81
2021/06/29 07:43:53;;;;;;;8.48;6.08;;;;;;;26.46;55.42;100649.03;1744340;81;21002;-79
2021/06/29 07:46:25;;;;;;;8.00;5.72;;;;;;;26.59;55.91;100644.27;1744471;82;20999;-80
2021/06/29 07:48:58;;;;;;;7.30;5.90;;;;;;;26.98;56.04;100646.38;1671120;85;21370;-80
2021/06/29 07:54:31;;;;;;;6.28;5.67;;;;;;;28.27;54.53;100656.28;1604426;87;21496;-79
2021/06/29 07:56:58;;;;;;;7.75;5.87;;;;;;;29.14;51.22;100653.48;1590991;88;21437;-79
2021/06/29 07:59:26;;;;;;;12.03;9.78;;;;;;;29.84;50.56;100656.80;1603970;88;20928;-80
2021/06/29 08:01:52;;;;;;;12.80;9.53;;;;;;;30.40;48.94;100651.89;1617812;87;21568;-78
2021/06/29 08:04:19;;;;;;;12.85;9.20;;;;;;;30.68;47.84;100642.45;1617702;87;21919;-79
2021/06/29 08:06:46;;;;;;;13.30;9.65;;;;;;;30.73;47.78;100634.50;1617965;87;20954;-79
2021/06/29 08:09:13;;;;;;;13.98;9.98;;;;;;;30.63;47.77;100633.65;1618814;88;20990;-77
2021/06/29 08:11:41;;;;;;;11.83;9.48;;;;;;;30.44;47.13;100636.87;1619770;87;20994;-76
2021/06/29 08:14:08;;;;;;;11.12;8.33;;;;;;;30.21;48.14;100645.56;1619370;87;20938;-77
2021/06/29 08:16:37;;;;;;;18.70;8.48;;;;;;;29.95;47.77;100652.03;1619617;88;20951;-78
2021/06/29 08:19:03;;;;;;;15.53;11.20;;;;;;;29.69;47.76;100657.09;1619889;87;21446;-79
2021/06/29 08:21:30;;;;;;;15.60;11.60;;;;;;;29.45;48.55;100652.71;1617761;87;20949;-77
2021/06/29 08:23:57;;;;;;;13.85;11.68;;;;;;;29.22;48.95;100657.83;1617832;87;21506;-79
2021/06/29 08:26:24;;;;;;;19.70;13.65;;;;;;;29.00;49.56;100659.95;1617487;87;20953;-78
2021/06/29 08:28:52;;;;;;;16.50;13.32;;;;;;;28.80;49.65;100670.27;1617725;87;21182;-79
2021/06/29 08:31:21;;;;;;;18.52;13.15;;;;;;;28.61;50.53;100665.73;1622596;88;21052;-78
2021/06/29 08:33:48;;;;;;;22.30;13.43;;;;;;;28.44;50.70;100665.33;1670807;86;21385;-79
2021/06/29 08:36:17;;;;;;;19.85;13.85;;;;;;;28.26;51.26;100659.21;1670575;85;20897;-74
2021/06/29 08:38:46;;;;;;;18.40;13.08;;;;;;;28.10;51.52;100648.30;1670659;86;20853;-75
2021/06/29 08:41:13;;;;;;;15.85;10.63;;;;;;;27.97;52.02;100647.79;1670660;86;21199;-76
2021/06/29 08:43:40;;;;;;;18.17;10.80;;;;;;;27.83;50.89;100643.37;1670599;86;21588;-78
2021/06/29 08:46:08;;;;;;;18.55;12.45;;;;;;;27.71;51.38;100652.58;1726799;82;20892;-77
2021/06/29 08:48:35;;;;;;;14.98;10.98;;;;;;;27.60;52.10;100651.31;1752674;82;21020;-80
2021/06/29 08:51:05;;;;;;;11.25;9.48;;;;;;;27.76;52.48;100653.31;1733631;82;20983;-77
2021/06/29 08:53:33;;;;;;;13.20;9.55;;;;;;;28.04;51.80;100654.01;1752745;82;21174;-78
2021/06/29 08:56:00;;;;;;;13.18;8.30;;;;;;;28.50;51.86;100649.16;1710360;83;20984;-79
2021/06/29 08:58:28;;;;;;;8.98;7.67;;;;;;;29.06;50.79;100648.27;1708989;84;21093;-79
2021/06/29 09:00:55;;;;;;;11.48;8.30;;;;;;;29.60;48.76;100653.78;1708711;84;21429;-76
2021/06/29 09:03:22;;;;;;;11.12;7.97;;;;;;;30.16;47.72;100648.94;1708781;84;20992;-77
2021/06/29 09:05:51;;;;;;;14.50;8.15;;;;;;;30.73;46.03;100645.33;1708725;84;21094;-76
2021/06/29 09:08:21;;;;;;;12.73;9.50;;;;;;;31.25;45.97;100642.24;1708725;82;21058;-75
2021/06/29 09:11:19;;;;;;;10.23;7.97;;;;;;;31.74;43.05;100642.52;1708821;82;20920;-78
2021/06/29 09:14:08;;;;;;;11.10;8.45;;;;;;;32.26;42.63;100641.94;1708940;82;20904;-74
2021/06/29 09:16:35;;;;;;;10.25;8.05;;;;;;;32.75;40.01;100639.81;1709227;84;20833;-77
2021/06/29 09:19:14;;;;;;;8.43;7.62;;;;;;;33.14;39.68;100630.58;1709298;84;21547;-77
2021/06/29 09:21:44;;;;;;;12.18;7.78;;;;;;;33.46;39.70;100630.09;1707461;82;20921;-78
2021/06/29 09:24:11;;;;;;;10.23;7.47;;;;;;;33.74;39.61;100619.74;1709268;84;21457;-85
2021/06/29 09:26:39;;;;;;;9.40;7.87;;;;;;;34.05;37.76;100612.09;1709232;82;20997;-81
2021/06/29 09:29:07;;;;;;;12.30;7.47;;;;;;;34.29;37.18;100605.13;1708809;83;20928;-80
2021/06/29 09:31:36;;;;;;;13.00;6.95;;;;;;;34.57;37.39;100598.70;1709001;84;21115;-81
2021/06/29 09:34:08;;;;;;;7.28;6.37;;;;;;;34.79;37.43;100595.47;1709254;82;20972;-83
2021/06/29 09:36:38;;;;;;;10.93;7.08;;;;;;;35.07;37.18;100588.17;1709433;82;20841;-82
2021/06/29 09:39:12;;;;;;;8.48;6.22;;;;;;;35.17;36.45;100577.38;1708945;84;21437;-80
2021/06/29 09:41:39;;;;;;;10.50;6.47;;;;;;;35.04;36.55;100582.70;1744905;81;20948;-80
2021/06/29 09:44:09;;;;;;;9.03;6.95;;;;;;;34.85;36.42;100582.73;1744787;82;21132;-82
2021/06/29 09:46:37;;;;;;;6.67;6.03;;;;;;;34.77;36.47;100585.36;1745025;80;20944;-78
2021/06/29 09:49:12;;;;;;;7.67;6.50;;;;;;;34.66;37.59;100586.31;1746720;81;20897;-77
2021/06/29 09:51:41;;;;;;;10.43;7.58;;;;;;;34.52;38.41;100583.66;1747153;81;20996;-75
2021/06/29 09:54:10;;;;;;;16.10;7.45;;;;;;;34.38;37.44;100592.19;1747437;81;20956;-75
2021/06/29 09:56:44;;;;;;;16.82;8.05;;;;;;;34.29;36.50;100590.98;1757336;80;21093;-73
2021/06/29 09:59:16;;;;;;;11.10;5.83;;;;;;;34.17;36.95;100601.95;1757139;81;21444;-76
2021/06/29 10:01:44;;;;;;;10.75;6.53;;;;;;;33.91;37.51;100603.98;1757808;81;20877;-75
2021/06/29 10:04:11;;;;;;;10.30;6.78;;;;;;;33.42;38.81;100602.58;1757846;81;20939;-73
2021/06/29 10:06:39;;;;;;;14.53;6.92;;;;;;;33.05;39.34;100589.87;1758216;80;21385;-71
2021/06/29 10:09:19;;;;;;;8.98;6.37;;;;;;;32.80;40.51;100589.66;1757883;81;21130;-75
2021/06/29 10:11:52;;;;;;;8.73;4.60;;;;;;;32.77;40.81;100578.44;1758201;81;20885;-76
2021/06/29 10:14:17;;;;;;;6.35;5.12;;;;;;;32.90;40.00;100569.20;1757822;81;20991;-75
2021/06/29 10:16:52;;;;;;;5.40;4.90;;;;;;;33.06;39.56;100560.30;1758154;80;21009;-76
2021/06/29 10:19:32;;;;;;;6.30;4.70;;;;;;;33.27;39.43;100562.87;1758029;81;21030;-74
2021/06/29 10:21:56;;;;;;;5.97;4.67;;;;;;;33.56;38.47;100558.21;1757686;81;21104;-73
2021/06/29 10:24:25;;;;;;;6.05;5.10;;;;;;;33.88;38.91;100561.73;1757788;81;20913;-75
2021/06/29 10:26:56;;;;;;;6.33;5.12;;;;;;;34.12;39.07;100571.94;1758280;81;20960;-73
2021/06/29 10:29:24;;;;;;;7.05;4.50;;;;;;;34.29;38.02;100570.55;1757767;81;21427;-73
2021/06/29 10:31:58;;;;;;;6.80;5.47;;;;;;;34.28;38.22;100577.60;1758120;81;20979;-76
2021/06/29 10:34:25;;;;;;;8.28;5.28;;;;;;;34.14;38.86;100586.66;1757892;81;21095;-74
2021/06/29 10:36:55;;;;;;;10.53;4.20;;;;;;;33.70;38.61;100584.58;1757705;81;20986;-80
2021/06/29 10:39:26;;;;;;;8.65;5.10;;;;;;;33.08;39.03;100579.91;1757873;81;20962;-77
2021/06/29 10:42:12;;;;;;;7.25;5.45;;;;;;;32.42;39.71;100577.96;1758224;81;20896;-83
2021/06/29 10:44:47;;;;;;;8.10;5.53;;;;;;;31.78;41.52;100581.33;1758051;81;20920;-80
2021/06/29 10:47:29;;;;;;;7.40;4.70;;;;;;;31.22;43.24;100584.45;1757948;81;21299;-81
2021/06/29 10:49:59;;;;;;;5.90;4.20;;;;;;;30.79;44.39;100594.31;1757860;81;20872;-82
2021/06/29 10:52:34;;;;;;;4.85;4.42;;;;;;;30.41;45.77;100587.23;1757982;80;21334;-81
2021/06/29 10:55:19;;;;;;;4.47;4.08;;;;;;;30.10;47.08;100594.39;1757814;81;21389;-79
2021/06/29 10:57:51;;;;;;;;;;;;;;;29.79;48.55;100603.88;1760625;81;20841;-80
2021/06/29 11:00:24;;;;;;;5.72;4.33;;;;;;;29.62;49.28;100602.22;1758080;81;21192;-81
2021/06/29 11:03:09;;;;;;;3.60;3.30;;;;;;;29.40;46.52;100601.20;1758017;81;20996;-80
2021/06/29 11:05:40;;;;;;;2.98;2.67;;;;;;;29.40;46.52;100601.20;1758054;81;20880;-81
2021/06/29 11:08:20;;;;;;;4.97;3.20;;;;;;;29.47;45.97;100611.97;1758053;81;21362;-80
2021/06/29 11:10:50;;;;;;;4.30;3.12;;;;;;;29.44;45.33;100620.52;1758172;80;20975;-79
2021/06/29 11:13:19;;;;;;;7.30;3.67;;;;;;;29.35;44.86;100625.34;1758369;81;21123;-79
2021/06/29 11:15:55;;;;;;;5.45;4.15;;;;;;;29.21;44.86;100625.91;1758111;81;20912;-79
2021/06/29 11:18:44;;;;;;;4.80;3.92;;;;;;;29.05;45.58;100620.97;1758767;81;20959;-78
2021/06/29 11:21:26;;;;;;;6.53;4.35;;;;;;;28.93;45.61;100618.94;1759130;81;20904;-77
2021/06/29 11:23:53;;;;;;;6.40;4.10;;;;;;;28.91;45.80;100610.75;1759211;80;20959;-77
2021/06/29 11:26:20;;;;;;;7.03;4.08;;;;;;;28.96;45.62;100610.93;1760419;81;21999;-78
2021/06/29 11:28:52;;;;;;;7.78;4.42;;;;;;;29.12;47.19;100612.34;1760437;80;20888;-78
2021/06/29 11:31:26;;;;;;;5.75;4.62;;;;;;;29.38;46.86;100615.98;1760679;80;20951;-78